createdAt,value
2018-03-25T00:00:30.907Z,24.15
2018-03-25T00:02:58.466Z,25.00
2018-03-25T00:05:26.740Z,24.42
2018-03-25T00:07:54.276Z,33.08
2018-03-25T00:10:22.546Z,26.17
2018-03-25T00:12:50.035Z,26.27
2018-03-25T00:15:18.419Z,26.70
2018-03-25T00:17:45.980Z,27.10
2018-03-25T00:20:13.553Z,27.70
2018-03-25T00:22:41.046Z,25.02
2018-03-25T00:25:08.639Z,24.58
2018-03-25T00:27:36.881Z,23.98
2018-03-25T00:30:04.382Z,23.38
2018-03-25T00:32:31.936Z,22.20
2018-03-25T00:35:00.220Z,22.40
2018-03-25T00:37:28.510Z,23.55
2018-03-25T00:39:56.045Z,23.50
2018-03-25T00:42:24.327Z,23.83
2018-03-25T00:44:52.609Z,23.38
2018-03-25T00:47:20.946Z,23.83
2018-03-25T00:49:48.451Z,26.45
2018-03-25T00:52:15.976Z,28.40
2018-03-25T00:54:43.451Z,26.85
2018-03-25T00:57:11.724Z,26.67
2018-03-25T00:59:39.303Z,27.55
2018-03-25T01:02:07.574Z,28.02
2018-03-25T01:04:35.855Z,30.12
2018-03-25T01:07:04.216Z,33.38
2018-03-25T01:09:32.487Z,33.78
2018-03-25T01:12:00.782Z,30.67
2018-03-25T01:14:29.096Z,29.65
2018-03-25T01:16:56.615Z,30.45
2018-03-25T01:19:24.891Z,31.62
2018-03-25T01:21:53.155Z,29.58
2018-03-25T01:24:21.722Z,32.05
2018-03-25T01:26:49.247Z,30.65
2018-03-25T01:29:16.755Z,29.73
2018-03-25T01:31:45.014Z,32.00
2018-03-25T01:34:12.489Z,33.03
2018-03-25T01:36:40.790Z,30.48
2018-03-25T01:39:09.068Z,31.20
2018-03-25T01:41:37.372Z,28.50
2018-03-25T01:44:04.889Z,28.17
2018-03-25T01:46:32.457Z,25.88
2018-03-25T01:49:00.704Z,25.10
2018-03-25T01:51:28.203Z,25.52
2018-03-25T01:53:56.451Z,27.33
2018-03-25T01:56:23.935Z,28.52
2018-03-25T01:58:52.202Z,30.27
2018-03-25T02:01:20.488Z,31.92
2018-03-25T02:03:48.764Z,29.00
2018-03-25T02:06:17.040Z,30.45
2018-03-25T02:08:45.290Z,29.90
2018-03-25T02:11:12.785Z,30.35
2018-03-25T02:13:40.331Z,30.20
2018-03-25T02:16:08.607Z,29.60
2018-03-25T02:18:36.861Z,27.35
2018-03-25T02:21:04.470Z,27.50
2018-03-25T02:23:32.350Z,27.45
2018-03-25T02:25:59.836Z,27.35
2018-03-25T02:28:27.427Z,27.90
2018-03-25T02:30:55.683Z,29.92
2018-03-25T02:33:23.179Z,27.70
2018-03-25T02:35:50.679Z,31.17
2018-03-25T02:38:18.181Z,31.98
2018-03-25T02:40:46.427Z,29.15
2018-03-25T02:43:13.943Z,26.40
2018-03-25T02:45:41.433Z,25.55
2018-03-25T02:48:08.931Z,26.48
2018-03-25T02:50:37.202Z,26.25
2018-03-25T02:53:05.507Z,25.90
2018-03-25T02:55:33.003Z,28.98
2018-03-25T02:58:00.511Z,27.37
2018-03-25T03:00:28.018Z,29.60
2018-03-25T03:02:55.614Z,30.95
2018-03-25T03:05:23.903Z,32.75
2018-03-25T03:07:52.145Z,34.58
2018-03-25T03:10:19.734Z,34.85
2018-03-25T03:12:48.019Z,33.83
2018-03-25T03:15:16.282Z,36.25
2018-03-25T03:17:44.566Z,35.13
2018-03-25T03:20:12.830Z,33.40
2018-03-25T03:22:40.315Z,33.97
2018-03-25T03:25:07.858Z,33.33
2018-03-25T03:27:36.485Z,29.77
2018-03-25T03:30:03.974Z,27.98
2018-03-25T03:32:31.563Z,27.20
2018-03-25T03:34:59.827Z,28.98
2018-03-25T03:37:27.399Z,27.50
2018-03-25T03:39:55.687Z,28.08
2018-03-25T03:42:23.233Z,28.75
2018-03-25T03:44:51.525Z,28.25
2018-03-25T03:47:19.781Z,28.35
2018-03-25T03:49:47.346Z,27.08
2018-03-25T03:52:15.585Z,27.33
2018-03-25T03:54:43.081Z,28.02
2018-03-25T03:57:11.362Z,27.87
2018-03-25T03:59:39.642Z,28.08
2018-03-25T04:02:07.903Z,27.13
2018-03-25T04:04:36.187Z,26.52
2018-03-25T04:07:04.471Z,27.70
2018-03-25T04:09:32.732Z,28.50
2018-03-25T04:12:00.245Z,27.42
2018-03-25T04:14:27.718Z,28.25
2018-03-25T04:16:55.198Z,29.80
2018-03-25T04:19:22.778Z,30.90
2018-03-25T04:21:51.025Z,27.98
2018-03-25T04:24:18.615Z,28.65
2018-03-25T04:26:46.114Z,28.35
2018-03-25T04:29:13.627Z,29.23
2018-03-25T04:31:41.892Z,30.50
2018-03-25T04:34:09.407Z,30.73
2018-03-25T04:36:36.923Z,31.30
2018-03-25T04:39:05.183Z,32.40
2018-03-25T04:41:32.691Z,33.22
2018-03-25T04:44:00.522Z,33.13
2018-03-25T04:46:28.777Z,30.48
2018-03-25T04:48:56.270Z,33.10
2018-03-25T04:51:24.531Z,33.63
2018-03-25T04:53:53.263Z,31.33
2018-03-25T04:56:20.774Z,30.37
2018-03-25T04:58:49.070Z,29.50
2018-03-25T05:01:17.338Z,30.88
2018-03-25T05:03:45.608Z,30.90
2018-03-25T05:06:13.897Z,30.10
2018-03-25T05:08:42.170Z,30.75
2018-03-25T05:11:10.438Z,30.37
2018-03-25T05:13:38.691Z,30.65
2018-03-25T05:16:06.170Z,30.67
2018-03-25T05:18:34.454Z,31.33
2018-03-25T05:21:02.705Z,30.80
2018-03-25T05:23:30.298Z,29.63
2018-03-25T05:25:58.588Z,30.10
2018-03-25T05:28:26.147Z,31.48
2018-03-25T05:30:53.637Z,28.83
2018-03-25T05:33:21.755Z,31.17
2018-03-25T05:35:50.050Z,29.45
2018-03-25T05:38:17.619Z,28.95
2018-03-25T05:40:45.127Z,31.92
2018-03-25T05:43:13.761Z,36.47
2018-03-25T05:45:41.250Z,30.60
2018-03-25T05:48:08.756Z,30.05
2018-03-25T05:50:37.023Z,30.45
2018-03-25T05:53:04.517Z,30.77
2018-03-25T05:55:32.036Z,28.67
2018-03-25T05:57:59.622Z,29.55
2018-03-25T06:00:27.098Z,31.25
2018-03-25T06:02:54.599Z,29.67
2018-03-25T06:05:22.091Z,30.42
2018-03-25T06:07:49.585Z,29.98
2018-03-25T06:10:17.104Z,29.63
2018-03-25T06:12:45.350Z,28.85
2018-03-25T06:15:12.931Z,29.55
2018-03-25T06:17:40.450Z,28.58
2018-03-25T06:20:07.935Z,28.80
2018-03-25T06:22:36.926Z,27.05
2018-03-25T06:25:04.422Z,28.80
2018-03-25T06:27:31.970Z,27.80
2018-03-25T06:29:59.528Z,28.30
2018-03-25T06:32:27.902Z,28.12
2018-03-25T06:34:56.187Z,28.70
2018-03-25T06:37:23.735Z,29.87
2018-03-25T06:39:52.424Z,27.35
2018-03-25T06:42:19.919Z,26.85
2018-03-25T06:44:47.416Z,30.48
2018-03-25T06:47:14.939Z,29.55
2018-03-25T06:49:42.425Z,27.55
2018-03-25T06:52:09.911Z,27.50
2018-03-25T06:54:38.218Z,27.62
2018-03-25T06:57:05.830Z,26.02
2018-03-25T06:59:33.313Z,26.98
2018-03-25T07:02:00.940Z,27.48
2018-03-25T07:04:28.432Z,27.20
2018-03-25T07:06:56.703Z,25.85
2018-03-25T07:09:25.087Z,25.62
2018-03-25T07:11:53.378Z,27.13
2018-03-25T07:14:20.998Z,24.73
2018-03-25T07:16:48.505Z,25.60
2018-03-25T07:19:16.183Z,28.25
2018-03-25T07:21:43.699Z,26.07
2018-03-25T07:24:12.016Z,23.80
2018-03-25T07:26:39.497Z,23.67
2018-03-25T07:29:07.006Z,22.30
2018-03-25T07:31:35.307Z,22.23
2018-03-25T07:34:02.812Z,21.83
2018-03-25T07:36:30.307Z,21.97
2018-03-25T07:38:58.607Z,22.30
2018-03-25T07:41:26.104Z,22.37
2018-03-25T07:43:53.580Z,21.23
2018-03-25T07:46:21.147Z,22.83
2018-03-25T07:48:49.432Z,21.83
2018-03-25T07:51:17.677Z,20.83
2018-03-25T07:53:45.181Z,21.97
2018-03-25T07:56:12.703Z,20.63
2018-03-25T07:58:40.284Z,21.97
2018-03-25T08:01:08.620Z,20.97
2018-03-25T08:03:36.122Z,20.97
2018-03-25T08:06:03.629Z,21.13
2018-03-25T08:08:31.179Z,20.57
2018-03-25T08:10:58.687Z,21.23
2018-03-25T08:13:26.213Z,21.43
2018-03-25T08:15:53.715Z,21.90
2018-03-25T08:18:21.986Z,21.03
2018-03-25T08:20:50.236Z,21.77
2018-03-25T08:23:17.821Z,21.30
2018-03-25T08:25:46.070Z,21.37
2018-03-25T08:28:13.655Z,24.00
2018-03-25T08:30:41.922Z,21.80
2018-03-25T08:33:09.408Z,21.97
2018-03-25T08:35:36.898Z,20.47
2018-03-25T08:38:04.407Z,21.33
2018-03-25T08:40:32.662Z,24.20
2018-03-25T08:43:00.181Z,21.67
2018-03-25T08:45:27.730Z,21.77
2018-03-25T08:47:55.219Z,21.97
2018-03-25T08:50:22.726Z,27.20
2018-03-25T08:52:50.991Z,25.10
2018-03-25T08:55:18.474Z,21.33
2018-03-25T08:57:46.033Z,21.73
2018-03-25T09:00:13.539Z,26.67
2018-03-25T09:02:41.039Z,24.23
2018-03-25T09:05:09.287Z,20.47
2018-03-25T09:07:36.818Z,20.57
2018-03-25T09:10:04.363Z,20.83
2018-03-25T09:12:31.852Z,20.63
2018-03-25T09:14:59.455Z,19.43
2018-03-25T09:17:27.689Z,17.63
2018-03-25T09:19:55.187Z,19.67
2018-03-25T09:22:23.453Z,20.87
2018-03-25T09:24:51.032Z,20.73
2018-03-25T09:27:20.171Z,20.63
2018-03-25T09:29:47.706Z,20.10
2018-03-25T09:32:15.186Z,22.73
2018-03-25T09:34:42.698Z,20.30
2018-03-25T09:37:11.001Z,20.07
2018-03-25T09:39:38.502Z,21.03
2018-03-25T09:42:06.039Z,23.13
2018-03-25T09:44:33.651Z,20.67
2018-03-25T09:47:01.924Z,20.07
2018-03-25T09:49:30.207Z,19.93
2018-03-25T09:51:58.581Z,21.40
2018-03-25T09:54:26.852Z,23.40
2018-03-25T09:56:54.335Z,21.77
2018-03-25T09:59:21.966Z,22.00
2018-03-25T10:01:55.167Z,21.63
2018-03-25T10:04:23.444Z,21.40
2018-03-25T10:06:51.705Z,21.87
2018-03-25T10:09:19.288Z,22.03
2018-03-25T10:11:47.551Z,21.17
2018-03-25T10:14:15.119Z,21.43
2018-03-25T10:16:43.418Z,22.33
2018-03-25T10:19:11.809Z,20.40
2018-03-25T10:21:39.338Z,19.77
2018-03-25T10:24:07.596Z,20.47
2018-03-25T10:26:35.183Z,20.70
2018-03-25T10:29:02.742Z,19.80
2018-03-25T10:31:31.016Z,20.37
2018-03-25T10:33:59.390Z,20.87
2018-03-25T10:36:27.674Z,21.90
2018-03-25T10:38:55.919Z,21.53
2018-03-25T10:41:23.502Z,19.57
2018-03-25T10:43:51.762Z,20.03
2018-03-25T10:46:19.251Z,20.03
2018-03-25T10:48:46.777Z,19.70
2018-03-25T10:51:14.298Z,20.93
2018-03-25T10:53:41.792Z,20.03
2018-03-25T10:56:09.304Z,19.57
2018-03-25T10:58:36.804Z,24.33
2018-03-25T11:01:04.298Z,21.50
2018-03-25T11:03:32.574Z,20.57
2018-03-25T11:06:00.822Z,20.43
2018-03-25T11:08:28.331Z,20.43
2018-03-25T11:10:55.854Z,19.33
2018-03-25T11:13:24.112Z,19.77
2018-03-25T11:15:51.713Z,19.90
2018-03-25T11:18:19.229Z,20.70
2018-03-25T11:20:46.737Z,19.93
2018-03-25T11:23:14.223Z,19.10
2018-03-25T11:25:41.841Z,19.33
2018-03-25T11:28:10.114Z,19.80
2018-03-25T11:30:38.379Z,18.47
2018-03-25T11:33:06.651Z,19.27
2018-03-25T11:35:34.929Z,19.23
2018-03-25T11:38:02.415Z,18.27
2018-03-25T11:40:29.968Z,19.53
2018-03-25T11:42:57.545Z,19.13
2018-03-25T11:45:25.140Z,19.07
2018-03-25T11:47:52.712Z,20.73
2018-03-25T11:50:20.202Z,20.60
2018-03-25T11:52:48.487Z,19.23
2018-03-25T11:55:16.034Z,18.03
2018-03-25T11:57:44.325Z,17.70
2018-03-25T12:00:11.824Z,18.53
2018-03-25T12:02:39.332Z,18.40
2018-03-25T12:05:07.595Z,17.60
2018-03-25T12:07:35.849Z,18.53
2018-03-25T12:10:03.446Z,18.43
2018-03-25T12:12:31.716Z,17.27
2018-03-25T12:15:00.022Z,17.83
2018-03-25T12:17:27.770Z,18.07
2018-03-25T12:19:55.301Z,17.97
2018-03-25T12:22:23.597Z,17.87
2018-03-25T12:24:51.890Z,17.83
2018-03-25T12:27:19.458Z,18.10
2018-03-25T12:29:46.951Z,18.13
2018-03-25T12:32:14.455Z,16.97
2018-03-25T12:34:41.940Z,17.47
2018-03-25T12:37:09.466Z,19.90
2018-03-25T12:39:36.979Z,17.40
2018-03-25T12:42:04.463Z,17.63
2018-03-25T12:44:31.972Z,18.87
2018-03-25T12:46:59.481Z,17.37
2018-03-25T12:49:27.058Z,16.90
2018-03-25T12:51:55.317Z,16.93
2018-03-25T12:54:23.615Z,17.23
2018-03-25T12:56:51.138Z,16.37
2018-03-25T12:59:18.626Z,16.37
2018-03-25T13:01:46.912Z,16.87
2018-03-25T13:04:15.184Z,17.63
2018-03-25T13:06:43.519Z,16.67
2018-03-25T13:09:11.015Z,17.17
2018-03-25T13:11:39.307Z,17.03
2018-03-25T13:14:06.795Z,16.67
2018-03-25T13:16:34.310Z,17.20
2018-03-25T13:19:02.702Z,16.93
2018-03-25T13:21:31.011Z,16.77
2018-03-25T13:23:59.243Z,16.43
2018-03-25T13:26:27.516Z,16.90
2018-03-25T13:28:55.916Z,16.30
2018-03-25T13:31:23.351Z,16.50
2018-03-25T13:33:50.918Z,16.30
2018-03-25T13:36:19.167Z,16.17
2018-03-25T13:38:46.681Z,16.03
2018-03-25T13:41:14.307Z,16.93
2018-03-25T13:43:41.907Z,17.70
2018-03-25T13:46:09.495Z,17.43
2018-03-25T13:48:36.985Z,24.30
2018-03-25T13:51:05.244Z,16.63
2018-03-25T13:53:32.751Z,19.97
2018-03-25T13:56:00.241Z,16.60
2018-03-25T13:58:27.725Z,16.73
2018-03-25T14:00:55.325Z,17.27
2018-03-25T14:03:22.862Z,18.10
2018-03-25T14:05:51.142Z,15.43
2018-03-25T14:08:19.411Z,16.57
2018-03-25T14:10:47.785Z,16.90
2018-03-25T14:13:15.356Z,16.67
2018-03-25T14:15:43.767Z,16.60
2018-03-25T14:18:11.252Z,16.80
2018-03-25T14:20:38.751Z,16.07
2018-03-25T14:23:07.125Z,15.70
2018-03-25T14:25:34.688Z,15.30
2018-03-25T14:28:02.385Z,15.63
2018-03-25T14:30:29.962Z,16.50
2018-03-25T14:32:57.434Z,16.07
2018-03-25T14:35:24.927Z,15.73
2018-03-25T14:37:53.298Z,15.77
2018-03-25T14:40:20.876Z,18.77
2018-03-25T14:42:49.204Z,16.37
2018-03-25T14:45:16.821Z,16.33
2018-03-25T14:47:45.074Z,17.00
2018-03-25T14:50:12.634Z,17.63
2018-03-25T14:52:40.178Z,17.80
2018-03-25T14:55:09.193Z,16.43
2018-03-25T14:57:36.755Z,16.53
2018-03-25T15:00:05.031Z,24.93
2018-03-25T15:02:33.355Z,19.87
2018-03-25T15:05:00.868Z,17.47
2018-03-25T15:07:29.135Z,17.60
2018-03-25T15:09:56.619Z,17.07
2018-03-25T15:12:24.866Z,17.13
2018-03-25T15:14:52.579Z,18.27
2018-03-25T15:17:20.079Z,17.03
2018-03-25T15:19:47.682Z,18.20
2018-03-25T15:22:15.189Z,21.77
2018-03-25T15:24:42.690Z,18.17
2018-03-25T15:27:10.935Z,18.53
2018-03-25T15:29:38.441Z,18.37
2018-03-25T15:32:05.984Z,18.50
2018-03-25T15:34:34.227Z,18.47
2018-03-25T15:37:03.357Z,20.03
2018-03-25T15:39:30.923Z,19.37
2018-03-25T15:41:59.166Z,19.03
2018-03-25T15:44:26.670Z,19.57
2018-03-25T15:46:54.170Z,19.93
2018-03-25T15:49:21.720Z,19.83
2018-03-25T15:51:49.399Z,18.73
2018-03-25T15:54:16.840Z,19.33
2018-03-25T15:56:44.410Z,20.30
2018-03-25T15:59:12.632Z,18.50
2018-03-25T16:01:40.127Z,19.50
2018-03-25T16:04:07.614Z,19.47
2018-03-25T16:06:35.158Z,19.27
2018-03-25T16:09:02.651Z,18.83
2018-03-25T16:11:30.893Z,21.00
2018-03-25T16:13:58.416Z,20.57
2018-03-25T16:16:25.945Z,19.90
2018-03-25T16:18:54.226Z,19.90
2018-03-25T16:21:22.606Z,20.43
2018-03-25T16:23:50.875Z,19.67
2018-03-25T16:26:19.121Z,20.20
2018-03-25T16:28:46.724Z,23.27
2018-03-25T16:31:14.277Z,20.40
2018-03-25T16:33:42.518Z,20.30
2018-03-25T16:36:10.018Z,20.03
2018-03-25T16:38:38.316Z,19.13
2018-03-25T16:41:05.809Z,19.80
2018-03-25T16:43:35.881Z,20.50
2018-03-25T16:46:03.367Z,19.97
2018-03-25T16:48:30.873Z,19.77
2018-03-25T16:50:59.151Z,20.30
2018-03-25T16:53:27.723Z,20.90
2018-03-25T16:55:55.993Z,20.40
2018-03-25T16:58:23.490Z,20.20
2018-03-25T17:00:51.041Z,21.63
2018-03-25T17:03:19.366Z,21.40
2018-03-25T17:05:46.964Z,21.10
2018-03-25T17:08:14.535Z,20.80
2018-03-25T17:10:42.802Z,21.50
2018-03-25T17:13:11.075Z,21.37
2018-03-25T17:15:39.381Z,22.17
2018-03-25T17:18:06.926Z,21.27
2018-03-25T17:20:35.211Z,21.43
2018-03-25T17:23:02.887Z,21.87
2018-03-25T17:25:30.402Z,22.07
2018-03-25T17:27:57.922Z,22.63
2018-03-25T17:30:25.448Z,35.70
2018-03-25T17:32:53.723Z,30.37
2018-03-25T17:35:22.130Z,22.97
2018-03-25T17:37:49.629Z,23.13
2018-03-25T17:40:17.151Z,23.20
2018-03-25T17:42:44.695Z,22.17
2018-03-25T17:45:12.195Z,22.03
2018-03-25T17:47:39.687Z,22.23
2018-03-25T17:50:07.198Z,22.17
2018-03-25T17:52:34.674Z,22.80
2018-03-25T17:55:02.331Z,22.77
2018-03-25T17:57:29.850Z,22.50
2018-03-25T17:59:57.455Z,24.47
2018-03-25T18:02:24.942Z,24.00
2018-03-25T18:04:53.220Z,23.30
2018-03-25T18:07:21.524Z,23.73
2018-03-25T18:09:49.030Z,23.43
2018-03-25T18:12:16.540Z,23.40
2018-03-25T18:14:44.032Z,22.87
2018-03-25T18:17:33.462Z,24.40
2018-03-25T18:19:40.833Z,23.73
2018-03-25T18:22:09.074Z,23.93
2018-03-25T18:24:36.635Z,24.27
2018-03-25T18:27:04.148Z,23.97
2018-03-25T18:29:31.640Z,22.40
2018-03-25T18:31:59.133Z,24.43
2018-03-25T18:34:26.634Z,23.53
2018-03-25T18:36:54.223Z,24.57
2018-03-25T18:39:21.710Z,25.40
2018-03-25T18:41:49.627Z,24.50
2018-03-25T18:44:17.130Z,23.70
2018-03-25T18:46:44.623Z,25.80
2018-03-25T18:49:12.179Z,23.40
2018-03-25T18:51:39.623Z,24.63
2018-03-25T18:54:07.883Z,24.97
2018-03-25T18:56:35.410Z,25.87
2018-03-25T18:59:02.909Z,24.43
2018-03-25T19:01:31.157Z,25.73
2018-03-25T19:03:58.747Z,25.20
2018-03-25T19:06:27.038Z,26.47
2018-03-25T19:08:55.309Z,25.63
2018-03-25T19:11:23.603Z,26.17
2018-03-25T19:13:51.113Z,25.63
2018-03-25T19:16:18.590Z,27.67
2018-03-25T19:18:46.124Z,27.77
2018-03-25T19:21:13.620Z,26.13
2018-03-25T19:23:41.897Z,27.90
2018-03-25T19:26:10.159Z,27.63
2018-03-25T19:28:37.633Z,27.07
2018-03-25T19:31:05.909Z,28.20
2018-03-25T19:33:34.300Z,27.20
2018-03-25T19:36:01.803Z,26.77
2018-03-25T19:38:29.497Z,29.67
2018-03-25T19:40:57.001Z,28.60
2018-03-25T19:43:24.554Z,30.50
2018-03-25T19:45:52.072Z,28.97
2018-03-25T19:48:19.590Z,29.73
2018-03-25T19:50:47.094Z,30.27
2018-03-25T19:53:14.581Z,30.50
2018-03-25T19:55:42.134Z,29.83
2018-03-25T19:58:09.787Z,31.70
2018-03-25T20:00:38.051Z,31.97
2018-03-25T20:03:06.350Z,31.57
2018-03-25T20:05:33.941Z,31.67
2018-03-25T20:08:01.418Z,32.73
2018-03-25T20:10:28.927Z,32.83
2018-03-25T20:12:57.491Z,31.63
2018-03-25T20:15:25.779Z,32.70
2018-03-25T20:17:54.038Z,32.93
2018-03-25T20:20:21.526Z,33.23
2018-03-25T20:22:49.013Z,32.37
2018-03-25T20:25:16.623Z,34.27
2018-03-25T20:27:44.898Z,33.50
2018-03-25T20:30:13.150Z,32.80
2018-03-25T20:32:40.661Z,33.37
2018-03-25T20:35:08.224Z,32.63
2018-03-25T20:37:35.778Z,32.10
2018-03-25T20:40:03.314Z,35.57
2018-03-25T20:42:30.982Z,33.37
2018-03-25T20:44:58.678Z,33.10
2018-03-25T20:47:26.256Z,33.77
2018-03-25T20:49:54.089Z,34.73
2018-03-25T20:52:21.615Z,33.77
2018-03-25T20:54:49.153Z,34.07
2018-03-25T20:57:16.635Z,34.53
2018-03-25T20:59:44.116Z,33.97
2018-03-25T21:02:11.715Z,35.63
2018-03-25T21:04:39.217Z,34.83
2018-03-25T21:07:07.483Z,34.57
2018-03-25T21:09:35.093Z,33.70
2018-03-25T21:12:02.592Z,35.90
2018-03-25T21:14:30.088Z,34.17
2018-03-25T21:16:58.363Z,34.43
2018-03-25T21:19:26.770Z,35.40
2018-03-25T21:21:54.269Z,35.73
2018-03-25T21:24:21.845Z,35.60
2018-03-25T21:26:50.102Z,34.77
2018-03-25T21:29:17.572Z,37.10
2018-03-25T21:31:45.091Z,35.77
2018-03-25T21:34:12.571Z,35.97
2018-03-25T21:36:40.046Z,36.37
2018-03-25T21:39:07.564Z,36.27
2018-03-25T21:41:35.052Z,36.07
2018-03-25T21:44:02.656Z,36.37
2018-03-25T21:46:30.191Z,36.87
2018-03-25T21:48:58.447Z,34.80
2018-03-25T21:51:26.802Z,36.10
2018-03-25T21:53:54.311Z,36.00
2018-03-25T21:56:22.555Z,36.40
2018-03-25T21:58:50.044Z,35.83
2018-03-25T22:01:18.311Z,37.27
2018-03-25T22:03:46.570Z,35.33
2018-03-25T22:06:14.058Z,34.90
2018-03-25T22:08:42.491Z,35.20
2018-03-25T22:11:10.036Z,35.77
2018-03-25T22:13:38.126Z,36.20
2018-03-25T22:16:05.660Z,35.73
2018-03-25T22:18:33.164Z,36.63
2018-03-25T22:21:00.728Z,36.00
2018-03-25T22:23:28.304Z,36.70
2018-03-25T22:25:56.571Z,36.37
2018-03-25T22:28:24.822Z,36.97
2018-03-25T22:30:52.410Z,37.27
2018-03-25T22:33:20.708Z,36.73
2018-03-25T22:35:48.290Z,38.33
2018-03-25T22:38:15.810Z,35.60
2018-03-25T22:40:44.056Z,37.13
2018-03-25T22:43:11.537Z,35.80
2018-03-25T22:45:39.818Z,37.07
2018-03-25T22:48:08.114Z,36.03
2018-03-25T22:50:35.678Z,35.90
2018-03-25T22:53:03.526Z,36.07
2018-03-25T22:55:31.776Z,36.23
2018-03-25T22:57:59.267Z,35.60
2018-03-25T23:00:27.164Z,35.83
2018-03-25T23:02:54.687Z,36.77
2018-03-25T23:05:22.962Z,36.00
2018-03-25T23:07:51.256Z,37.67
2018-03-25T23:10:18.747Z,35.77
2018-03-25T23:12:46.230Z,37.00
2018-03-25T23:15:15.250Z,36.10
2018-03-25T23:17:43.495Z,35.43
2018-03-25T23:20:10.979Z,34.90
2018-03-25T23:22:38.564Z,35.17
2018-03-25T23:25:06.058Z,38.33
2018-03-25T23:27:33.592Z,36.70
2018-03-25T23:30:01.107Z,36.33
2018-03-25T23:32:28.601Z,36.20
2018-03-25T23:34:56.096Z,35.37
2018-03-25T23:37:23.708Z,36.30
2018-03-25T23:39:51.972Z,35.57
2018-03-25T23:42:19.543Z,35.80
2018-03-25T23:44:47.936Z,35.23
2018-03-25T23:47:15.432Z,37.50
2018-03-25T23:49:42.962Z,35.77
2018-03-25T23:52:10.497Z,36.23
2018-03-25T23:54:38.757Z,37.13
2018-03-25T23:57:06.260Z,36.00
2018-03-25T23:59:33.792Z,35.23
